createdAt,value
2023-04-24T00:00:57.576Z,99583.03
2023-04-24T00:03:31.185Z,99578.69
2023-04-24T00:06:00.144Z,99578.28
2023-04-24T00:08:29.152Z,99581.19
2023-04-24T00:10:57.979Z,99584.13
2023-04-24T00:13:26.931Z,99576.03
2023-04-24T00:15:55.585Z,99575.19
2023-04-24T00:18:24.779Z,99571.84
2023-04-24T00:20:54.906Z,99567.09
2023-04-24T00:23:23.843Z,99573.47
2023-04-24T00:25:52.436Z,99573.75
2023-04-24T00:28:21.396Z,99581.94
2023-04-24T00:30:50.187Z,99583.31
2023-04-24T00:33:19.168Z,99584.00
2023-04-24T00:35:47.833Z,99583.69
2023-04-24T00:38:18.164Z,99584.47
2023-04-24T00:40:48.548Z,99588.34
2023-04-24T00:43:17.910Z,99583.91
2023-04-24T00:45:46.670Z,99572.41
2023-04-24T00:48:16.841Z,99578.13
2023-04-24T00:50:45.720Z,99575.22
2023-04-24T00:53:18.194Z,99576.19
2023-04-24T00:55:47.645Z,99570.66
2023-04-24T00:58:17.026Z,99572.31
2023-04-24T01:00:47.248Z,99575.09
2023-04-24T01:03:17.243Z,99573.66
2023-04-24T01:05:46.418Z,99569.50
2023-04-24T01:08:17.715Z,99571.28
2023-04-24T01:10:48.705Z,99573.09
2023-04-24T01:13:17.781Z,99573.91
2023-04-24T01:15:47.729Z,99567.63
2023-04-24T01:18:17.882Z,99569.09
2023-04-24T01:20:49.125Z,99567.84
2023-04-24T01:23:19.739Z,99562.94
2023-04-24T01:25:48.694Z,99568.22
2023-04-24T01:28:18.231Z,99559.09
2023-04-24T01:30:47.492Z,99559.94
2023-04-24T01:33:16.687Z,99553.84
2023-04-24T01:35:45.650Z,99558.41
2023-04-24T01:38:14.772Z,99559.50
2023-04-24T01:40:45.233Z,99550.88
2023-04-24T01:43:15.264Z,99543.13
2023-04-24T01:45:43.978Z,99548.38
2023-04-24T01:48:15.053Z,99542.09
2023-04-24T01:50:44.139Z,99537.78
2023-04-24T01:53:14.638Z,99533.63
2023-04-24T01:55:45.916Z,99537.34
2023-04-24T01:58:16.250Z,99522.31
2023-04-24T02:00:45.006Z,99530.72
2023-04-24T02:03:14.172Z,99529.31
2023-04-24T02:05:45.936Z,99527.50
2023-04-24T02:08:14.987Z,99527.00
2023-04-24T02:10:45.267Z,99534.09
2023-04-24T02:13:14.456Z,99525.03
2023-04-24T02:15:43.153Z,99523.66
2023-04-24T02:18:13.819Z,99530.06
2023-04-24T02:20:42.523Z,99536.72
2023-04-24T02:23:11.405Z,99532.31
2023-04-24T02:25:40.955Z,99523.00
2023-04-24T02:28:11.357Z,99514.53
2023-04-24T02:30:40.284Z,99517.16
2023-04-24T02:33:09.337Z,99517.16
2023-04-24T02:35:38.318Z,99515.63
2023-04-24T02:38:07.464Z,99512.53
2023-04-24T02:40:36.172Z,99510.19
2023-04-24T02:43:05.457Z,99520.38
2023-04-24T02:45:35.814Z,99511.06
2023-04-24T02:48:05.122Z,99505.94
2023-04-24T02:50:34.651Z,99510.50
2023-04-24T02:53:03.623Z,99515.06
2023-04-24T02:55:32.411Z,99505.47
2023-04-24T02:58:01.307Z,99494.63
2023-04-24T03:00:29.991Z,99506.97
2023-04-24T03:03:01.049Z,99501.63
2023-04-24T03:05:30.030Z,99502.03
2023-04-24T03:07:59.165Z,99499.63
2023-04-24T03:10:27.904Z,99503.22
2023-04-24T03:12:56.921Z,99492.25
2023-04-24T03:15:25.569Z,99496.09
2023-04-24T03:17:56.656Z,99500.41
2023-04-24T03:20:27.367Z,99500.13
2023-04-24T03:22:58.741Z,99502.63
2023-04-24T03:25:28.094Z,99506.81
2023-04-24T03:27:57.613Z,99513.63
2023-04-24T03:30:41.337Z,99505.59
2023-04-24T03:33:11.320Z,99512.00
2023-04-24T03:35:48.440Z,99517.72
2023-04-24T03:38:17.493Z,99507.66
2023-04-24T03:41:02.966Z,99517.69
2023-04-24T03:43:46.019Z,99519.41
2023-04-24T03:46:15.219Z,99510.44
2023-04-24T03:48:49.993Z,99512.66
2023-04-24T03:51:23.266Z,99512.28
2023-04-24T03:53:56.001Z,99510.34
2023-04-24T03:56:26.899Z,99512.72
2023-04-24T03:58:56.381Z,99510.53
2023-04-24T04:01:25.578Z,99515.06
2023-04-24T04:04:01.119Z,99519.09
2023-04-24T04:06:33.094Z,99518.59
2023-04-24T04:09:04.183Z,99514.72
2023-04-24T04:11:33.130Z,99517.91
2023-04-24T04:14:02.135Z,99521.81
2023-04-24T04:16:31.276Z,99520.72
2023-04-24T04:19:05.201Z,99510.25
2023-04-24T04:21:35.293Z,99521.78
2023-04-24T04:24:23.560Z,99523.72
2023-04-24T04:26:53.320Z,99521.00
2023-04-24T04:29:29.775Z,99513.94
2023-04-24T04:31:59.241Z,99508.69
2023-04-24T04:34:29.994Z,99507.06
2023-04-24T04:37:02.095Z,99506.06
2023-04-24T04:39:57.235Z,99513.75
2023-04-24T04:42:29.465Z,99506.94
2023-04-24T04:44:59.280Z,99507.94
2023-04-24T04:47:38.118Z,99504.03
2023-04-24T04:50:08.596Z,99495.56
2023-04-24T04:52:38.755Z,99495.16
2023-04-24T04:55:19.344Z,99499.56
2023-04-24T04:58:23.635Z,99504.72
2023-04-24T05:00:58.403Z,99500.91
2023-04-24T05:03:31.714Z,99498.66
2023-04-24T05:06:06.978Z,99501.84
2023-04-24T05:08:40.074Z,99496.78
2023-04-24T05:11:12.534Z,99500.59
2023-04-24T05:13:42.338Z,99494.47
2023-04-24T05:16:16.613Z,99490.78
2023-04-24T05:18:45.766Z,99497.34
2023-04-24T05:21:17.843Z,99500.91
2023-04-24T05:23:52.526Z,99491.53
2023-04-24T05:26:41.553Z,99491.78
2023-04-24T05:29:11.459Z,99496.25
2023-04-24T05:31:40.475Z,99495.56
2023-04-24T05:34:09.181Z,99493.53
2023-04-24T05:36:42.208Z,99488.22
2023-04-24T05:39:12.737Z,99488.66
2023-04-24T05:41:41.720Z,99484.19
2023-04-24T05:44:10.423Z,99487.81
2023-04-24T05:46:39.580Z,99486.13
2023-04-24T05:49:08.227Z,99482.97
2023-04-24T05:51:37.881Z,99490.34
2023-04-24T05:54:06.791Z,99488.13
2023-04-24T05:56:37.306Z,99481.59
2023-04-24T05:59:08.468Z,99488.94
2023-04-24T06:01:38.142Z,99481.16
2023-04-24T06:04:17.770Z,99484.38
2023-04-24T06:06:47.006Z,99478.78
2023-04-24T06:09:15.986Z,99470.47
2023-04-24T06:11:46.764Z,99476.41
2023-04-24T06:14:16.815Z,99480.56
2023-04-24T06:17:15.718Z,99478.34
2023-04-24T06:19:44.887Z,99473.28
2023-04-24T06:22:14.104Z,99476.66
2023-04-24T06:24:43.733Z,99471.72
2023-04-24T06:27:15.291Z,99473.78
2023-04-24T06:29:45.021Z,99473.34
2023-04-24T06:32:14.345Z,99466.59
2023-04-24T06:34:43.411Z,99462.84
2023-04-24T06:37:12.662Z,99460.31
2023-04-24T06:39:41.459Z,99464.47
2023-04-24T06:42:10.719Z,99460.16
2023-04-24T06:44:42.651Z,99461.44
2023-04-24T06:47:14.766Z,99459.72
2023-04-24T06:49:44.040Z,99462.38
2023-04-24T06:52:13.348Z,99462.38
2023-04-24T06:54:43.981Z,99455.63
2023-04-24T06:57:13.217Z,99462.53
2023-04-24T06:59:43.476Z,99463.28
2023-04-24T07:02:12.812Z,99463.50
2023-04-24T07:04:42.876Z,99457.75
2023-04-24T07:07:15.172Z,99462.44
2023-04-24T07:09:45.659Z,99457.59
2023-04-24T07:12:14.872Z,99457.66
2023-04-24T07:14:44.979Z,99461.41
2023-04-24T07:17:14.339Z,99467.84
2023-04-24T07:19:43.891Z,99465.00
2023-04-24T07:22:17.859Z,99465.19
2023-04-24T07:24:47.073Z,99465.94
2023-04-24T07:27:16.416Z,99464.91
2023-04-24T07:29:47.019Z,99462.22
2023-04-24T07:32:16.258Z,99462.88
2023-04-24T07:34:45.034Z,99459.19
2023-04-24T07:37:14.206Z,99466.94
2023-04-24T07:39:43.796Z,99461.97
2023-04-24T07:42:12.950Z,99461.19
2023-04-24T07:44:41.625Z,99460.88
2023-04-24T07:47:12.110Z,99457.50
2023-04-24T07:49:41.161Z,99463.97
2023-04-24T07:52:10.361Z,99453.78
2023-04-24T07:54:39.322Z,99455.44
2023-04-24T07:57:09.296Z,99457.50
2023-04-24T07:59:38.115Z,99458.09
2023-04-24T08:02:12.077Z,99457.75
2023-04-24T08:04:40.926Z,99455.97
2023-04-24T08:07:10.204Z,99455.81
2023-04-24T08:09:38.974Z,99455.09
2023-04-24T08:12:08.331Z,99447.72
2023-04-24T08:14:37.081Z,99455.94
2023-04-24T08:17:06.099Z,99448.47
2023-04-24T08:19:36.182Z,99453.53
2023-04-24T08:22:05.346Z,99449.84
2023-04-24T08:24:34.073Z,99453.81
2023-04-24T08:27:03.210Z,99452.84
2023-04-24T08:29:32.108Z,99450.50
2023-04-24T08:32:01.225Z,99449.81
2023-04-24T08:34:29.966Z,99458.81
2023-04-24T08:37:00.646Z,99444.41
2023-04-24T08:39:29.482Z,99452.09
2023-04-24T08:41:58.799Z,99449.84
2023-04-24T08:44:27.688Z,99454.88
2023-04-24T08:46:56.834Z,99449.19
2023-04-24T08:49:29.104Z,99453.47
2023-04-24T08:52:00.793Z,99449.50
2023-04-24T08:54:30.692Z,99447.94
2023-04-24T08:57:04.565Z,99449.47
2023-04-24T08:59:34.416Z,99453.00
2023-04-24T09:02:05.993Z,99444.69
2023-04-24T09:04:36.866Z,99437.88
2023-04-24T09:07:12.270Z,99441.25
2023-04-24T09:09:43.013Z,99441.47
2023-04-24T09:12:12.695Z,99441.69
2023-04-24T09:14:45.909Z,99443.56
2023-04-24T09:17:15.414Z,99439.56
2023-04-24T09:19:44.281Z,99444.97
2023-04-24T09:22:14.912Z,99423.66
2023-04-24T09:24:43.750Z,99440.19
2023-04-24T09:27:15.776Z,99432.97
2023-04-24T09:29:56.927Z,99428.53
2023-04-24T09:32:29.860Z,99428.16
2023-04-24T09:35:11.084Z,99429.41
2023-04-24T09:37:44.748Z,99417.84
2023-04-24T09:40:18.977Z,99416.84
2023-04-24T09:42:53.737Z,99410.69
2023-04-24T09:45:23.120Z,99408.47
2023-04-24T09:47:56.140Z,99402.91
2023-04-24T09:50:25.246Z,99413.06
2023-04-24T09:53:06.016Z,99409.28
2023-04-24T09:55:41.001Z,99402.69
2023-04-24T09:58:16.145Z,99406.22
2023-04-24T10:00:45.059Z,99397.00
2023-04-24T10:03:15.790Z,99400.00
2023-04-24T10:05:44.779Z,99401.38
2023-04-24T10:08:22.617Z,99391.78
2023-04-24T10:10:51.268Z,99398.81
2023-04-24T10:13:20.586Z,99385.19
2023-04-24T10:15:52.123Z,99380.38
2023-04-24T10:18:27.344Z,99383.25
2023-04-24T10:21:04.438Z,99383.50
2023-04-24T10:23:38.631Z,99376.63
2023-04-24T10:26:08.032Z,99370.75
2023-04-24T10:28:39.466Z,99370.59
2023-04-24T10:31:22.218Z,99371.31
2023-04-24T10:33:56.508Z,99364.03
2023-04-24T10:36:27.898Z,99360.25
2023-04-24T10:39:05.774Z,99354.03
2023-04-24T10:41:39.006Z,99360.03
2023-04-24T10:44:08.739Z,99354.94
2023-04-24T10:46:38.229Z,99352.97
2023-04-24T10:49:10.764Z,99352.00
2023-04-24T10:51:52.123Z,99343.44
2023-04-24T10:54:30.972Z,99344.75
2023-04-24T10:57:32.113Z,99344.63
2023-04-24T11:00:22.134Z,99343.47
2023-04-24T11:02:53.702Z,99344.22
2023-04-24T11:05:24.330Z,99340.59
2023-04-24T11:08:23.463Z,99347.38
2023-04-24T11:11:01.528Z,99343.03
2023-04-24T11:14:07.650Z,99335.41
2023-04-24T11:16:45.917Z,99339.00
2023-04-24T11:19:25.899Z,99340.38
2023-04-24T11:22:04.139Z,99337.41
2023-04-24T11:24:41.927Z,99336.28
2023-04-24T11:27:22.839Z,99336.31
2023-04-24T11:30:02.843Z,99328.25
2023-04-24T11:32:40.503Z,99317.88
2023-04-24T11:35:15.965Z,99328.66
2023-04-24T11:38:08.111Z,99322.53
2023-04-24T11:40:37.428Z,99319.59
2023-04-24T11:43:10.625Z,99316.41
2023-04-24T11:45:39.366Z,99321.88
2023-04-24T11:48:08.375Z,99311.00
2023-04-24T11:50:37.452Z,99320.25
2023-04-24T11:53:06.883Z,99321.19
2023-04-24T11:55:36.348Z,99310.66
2023-04-24T11:58:07.826Z,99302.94
2023-04-24T12:00:36.897Z,99298.44
2023-04-24T12:03:09.126Z,99301.00
2023-04-24T12:05:38.473Z,99298.56
2023-04-24T12:08:08.178Z,99292.34
2023-04-24T12:10:37.617Z,99284.75
2023-04-24T12:13:11.383Z,99285.13
2023-04-24T12:15:42.756Z,99280.25
2023-04-24T12:18:14.851Z,99277.28
2023-04-24T12:20:43.968Z,99273.28
2023-04-24T12:23:13.208Z,99280.19
2023-04-24T12:25:42.808Z,99282.22
2023-04-24T12:28:15.237Z,99281.09
2023-04-24T12:30:47.142Z,99290.47
2023-04-24T12:33:20.590Z,99283.28
2023-04-24T12:35:50.983Z,99302.03
2023-04-24T12:38:25.832Z,99310.94
2023-04-24T12:41:06.250Z,99307.50
2023-04-24T12:43:37.731Z,99313.28
2023-04-24T12:46:07.151Z,99310.81
2023-04-24T12:48:36.301Z,99321.16
2023-04-24T12:51:05.535Z,99325.25
2023-04-24T12:53:34.562Z,99322.66
2023-04-24T12:56:03.241Z,99306.72
2023-04-24T12:58:32.155Z,99318.81
2023-04-24T13:01:02.858Z,99313.91
2023-04-24T13:03:31.935Z,99303.94
2023-04-24T13:06:00.679Z,99314.94
2023-04-24T13:08:29.597Z,99320.06
2023-04-24T13:10:58.352Z,99312.19
2023-04-24T13:13:27.591Z,99312.13
2023-04-24T13:15:56.394Z,99290.00
2023-04-24T13:18:27.156Z,99290.44
2023-04-24T13:20:55.961Z,99278.75
2023-04-24T13:23:24.938Z,99287.19
2023-04-24T13:25:56.392Z,99278.16
2023-04-24T13:28:25.721Z,99289.50
2023-04-24T13:30:54.531Z,99288.91
2023-04-24T13:33:23.493Z,99276.59
2023-04-24T13:35:53.524Z,99274.56
2023-04-24T13:38:23.625Z,99269.69
2023-04-24T13:40:52.424Z,99272.22
2023-04-24T13:43:21.375Z,99279.19
2023-04-24T13:45:50.357Z,99278.59
2023-04-24T13:48:19.399Z,99270.28
2023-04-24T13:50:49.370Z,99264.75
2023-04-24T13:53:19.866Z,99272.50
2023-04-24T13:55:48.676Z,99273.81
2023-04-24T13:58:17.667Z,99266.56
2023-04-24T14:00:46.617Z,99256.84
2023-04-24T14:03:15.728Z,99256.06
2023-04-24T14:05:44.512Z,99256.13
2023-04-24T14:08:13.496Z,99253.47
2023-04-24T14:10:44.740Z,99240.94
2023-04-24T14:13:14.074Z,99250.41
2023-04-24T14:15:42.868Z,99242.56
2023-04-24T14:18:11.940Z,99249.97
2023-04-24T14:20:41.119Z,99256.56
2023-04-24T14:23:10.058Z,99248.75
2023-04-24T14:25:38.923Z,99242.34
2023-04-24T14:28:09.707Z,99243.78
2023-04-24T14:30:41.638Z,99238.41
2023-04-24T14:33:10.594Z,99236.13
2023-04-24T14:35:39.380Z,99232.63
2023-04-24T14:38:08.328Z,99227.47
2023-04-24T14:41:02.699Z,99223.72
2023-04-24T14:43:27.590Z,99217.28
2023-04-24T14:45:56.260Z,99223.84
2023-04-24T14:48:25.190Z,99219.28
2023-04-24T14:50:53.903Z,99212.28
2023-04-24T14:53:23.044Z,99201.97
2023-04-24T14:55:51.848Z,99198.28
2023-04-24T14:58:21.066Z,99202.41
2023-04-24T15:00:53.004Z,99199.53
2023-04-24T15:03:22.849Z,99198.75
2023-04-24T15:05:52.757Z,99202.47
2023-04-24T15:08:21.805Z,99198.81
2023-04-24T15:10:50.906Z,99192.22
2023-04-24T15:13:19.933Z,99183.78
2023-04-24T15:15:50.619Z,99185.19
2023-04-24T15:18:19.699Z,99181.50
2023-04-24T15:20:48.383Z,99188.94
2023-04-24T15:23:17.294Z,99180.72
2023-04-24T15:25:46.022Z,99178.25
2023-04-24T15:28:14.955Z,99172.03
2023-04-24T15:30:43.802Z,99171.44
2023-04-24T15:33:14.241Z,99162.00
2023-04-24T15:35:42.954Z,99168.00
2023-04-24T15:38:11.995Z,99155.41
2023-04-24T15:40:40.665Z,99154.41
2023-04-24T15:43:09.554Z,99152.78
2023-04-24T15:45:38.455Z,99144.38
2023-04-24T15:48:07.597Z,99149.72
2023-04-24T15:50:37.701Z,99138.41
2023-04-24T15:53:08.107Z,99138.81
2023-04-24T15:55:37.369Z,99131.38
2023-04-24T15:58:06.812Z,99135.09
2023-04-24T16:00:35.585Z,99133.88
2023-04-24T16:03:06.940Z,99128.09
2023-04-24T16:05:38.613Z,99135.47
2023-04-24T16:08:07.956Z,99135.47
2023-04-24T16:10:38.341Z,99128.47
2023-04-24T16:13:07.352Z,99128.84
2023-04-24T16:15:36.465Z,99123.66
2023-04-24T16:18:06.093Z,99131.06
2023-04-24T16:20:35.073Z,99133.31
2023-04-24T16:23:05.827Z,99131.03
2023-04-24T16:25:34.677Z,99129.81
2023-04-24T16:28:03.872Z,99129.56
2023-04-24T16:30:32.794Z,99128.34
2023-04-24T16:33:05.690Z,99126.25
2023-04-24T16:35:34.515Z,99122.56
2023-04-24T16:38:05.319Z,99120.88
2023-04-24T16:40:34.177Z,99118.81
2023-04-24T16:43:03.267Z,99119.84
2023-04-24T16:45:32.172Z,99116.97
2023-04-24T16:48:03.638Z,99119.16
2023-04-24T16:50:32.843Z,99115.47
2023-04-24T16:53:01.989Z,99119.38
2023-04-24T16:55:32.166Z,99120.16
2023-04-24T16:58:01.267Z,99123.59
2023-04-24T17:00:30.046Z,99121.91
2023-04-24T17:02:59.034Z,99121.66
2023-04-24T17:05:28.310Z,99123.91
2023-04-24T17:07:57.520Z,99117.69
2023-04-24T17:10:26.356Z,99115.81
2023-04-24T17:12:57.362Z,99119.03
2023-04-24T17:15:26.431Z,99115.31
2023-04-24T17:17:56.704Z,99120.59
2023-04-24T17:20:26.996Z,99115.22
2023-04-24T17:22:58.394Z,99108.81
2023-04-24T17:25:27.305Z,99123.31
2023-04-24T17:27:57.723Z,99121.81
2023-04-24T17:30:26.470Z,99118.19
2023-04-24T17:32:55.575Z,99114.56
2023-04-24T17:35:24.274Z,99114.72
2023-04-24T17:37:53.560Z,99119.91
2023-04-24T17:40:22.391Z,99113.41
2023-04-24T17:42:51.475Z,99113.06
2023-04-24T17:45:21.744Z,99118.31
2023-04-24T17:47:51.810Z,99113.66
2023-04-24T17:50:20.792Z,99114.72
2023-04-24T17:52:49.763Z,99113.81
2023-04-24T17:55:18.555Z,99115.56
2023-04-24T17:57:47.574Z,99113.00
2023-04-24T18:00:17.660Z,99113.19
2023-04-24T18:02:49.775Z,99103.47
2023-04-24T18:05:19.026Z,99125.03
2023-04-24T18:07:48.005Z,99114.75
2023-04-24T18:10:16.933Z,99123.09
2023-04-24T18:12:46.580Z,99125.28
2023-04-24T18:15:15.805Z,99123.66
2023-04-24T18:17:45.128Z,99125.63
2023-04-24T18:20:17.852Z,99121.81
2023-04-24T18:22:47.597Z,99130.31
2023-04-24T18:25:17.775Z,99136.19
2023-04-24T18:27:46.683Z,99125.94
2023-04-24T18:30:15.457Z,99133.22
2023-04-24T18:32:44.518Z,99129.47
2023-04-24T18:35:14.699Z,99128.84
2023-04-24T18:37:45.401Z,99139.88
2023-04-24T18:40:15.404Z,99139.94
2023-04-24T18:42:45.182Z,99144.50
2023-04-24T18:45:15.309Z,99144.03
2023-04-24T18:47:44.925Z,99142.59
2023-04-24T18:50:15.650Z,99145.97
2023-04-24T18:52:44.710Z,99144.19
2023-04-24T18:55:13.399Z,99145.91
2023-04-24T18:57:42.370Z,99147.91
2023-04-24T19:00:12.518Z,99147.75
2023-04-24T19:02:41.287Z,99155.44
2023-04-24T19:05:12.112Z,99147.53
2023-04-24T19:07:42.393Z,99151.53
2023-04-24T19:10:11.997Z,99158.84
2023-04-24T19:12:40.912Z,99161.16
2023-04-24T19:15:11.965Z,99152.53
2023-04-24T19:17:40.676Z,99156.88
2023-04-24T19:20:10.467Z,99157.88
2023-04-24T19:22:39.202Z,99160.75
2023-04-24T19:25:10.531Z,99155.59
2023-04-24T19:27:39.371Z,99153.25
2023-04-24T19:30:10.188Z,99151.25
2023-04-24T19:32:38.897Z,99150.59
2023-04-24T19:35:08.631Z,99153.25
2023-04-24T19:37:37.439Z,99156.94
2023-04-24T19:40:09.957Z,99154.59
2023-04-24T19:42:43.864Z,99185.97
2023-04-24T19:45:14.152Z,99186.69
2023-04-24T19:47:43.312Z,99204.44
2023-04-24T19:50:12.766Z,99202.81
2023-04-24T19:52:41.602Z,99203.47
2023-04-24T19:55:12.079Z,99195.19
2023-04-24T19:57:40.830Z,99195.72
2023-04-24T20:00:11.485Z,99199.50
2023-04-24T20:02:40.405Z,99197.34
2023-04-24T20:05:10.534Z,99202.66
2023-04-24T20:07:39.428Z,99204.00
2023-04-24T20:10:11.665Z,99206.00
2023-04-24T20:12:40.314Z,99188.75
2023-04-24T20:15:11.007Z,99202.16
2023-04-24T20:17:39.634Z,99205.81
2023-04-24T20:20:10.407Z,99194.84
2023-04-24T20:22:39.727Z,99203.34
2023-04-24T20:25:13.051Z,99205.97
2023-04-24T20:27:42.540Z,99204.00
2023-04-24T20:30:13.914Z,99201.03
2023-04-24T20:32:43.373Z,99203.16
2023-04-24T20:35:13.063Z,99202.66
2023-04-24T20:37:42.459Z,99198.34
2023-04-24T20:40:14.300Z,99208.59
2023-04-24T20:42:46.335Z,99200.81
2023-04-24T20:45:15.349Z,99200.28
2023-04-24T20:47:44.013Z,99203.09
2023-04-24T20:50:13.179Z,99203.25
2023-04-24T20:52:41.952Z,99202.06
2023-04-24T20:55:12.932Z,99194.09
2023-04-24T20:57:41.942Z,99194.09
2023-04-24T21:00:12.953Z,99205.00
2023-04-24T21:02:42.380Z,99206.00
2023-04-24T21:05:11.682Z,99204.31
2023-04-24T21:07:40.396Z,99202.16
2023-04-24T21:10:13.327Z,99200.28
2023-04-24T21:12:42.030Z,99218.78
2023-04-24T21:15:11.872Z,99211.63
2023-04-24T21:17:40.654Z,99213.09
2023-04-24T21:20:11.239Z,99216.06
2023-04-24T21:22:40.305Z,99215.69
2023-04-24T21:25:10.280Z,99217.69
2023-04-24T21:27:40.505Z,99206.59
2023-04-24T21:30:11.310Z,99214.69
2023-04-24T21:32:40.681Z,99210.66
2023-04-24T21:35:10.770Z,99214.78
2023-04-24T21:37:40.074Z,99213.59
2023-04-24T21:40:11.654Z,99220.78
2023-04-24T21:42:41.724Z,99221.38
2023-04-24T21:45:12.476Z,99219.88
2023-04-24T21:47:41.157Z,99215.72
2023-04-24T21:50:11.792Z,99216.31
2023-04-24T21:52:40.657Z,99214.69
2023-04-24T21:55:10.469Z,99216.81
2023-04-24T21:57:39.310Z,99221.72
2023-04-24T22:00:12.326Z,99214.91
2023-04-24T22:02:43.080Z,99215.34
2023-04-24T22:05:15.728Z,99214.00
2023-04-24T22:07:47.229Z,99214.00
2023-04-24T22:10:19.071Z,99214.84
2023-04-24T22:12:48.389Z,99205.56
2023-04-24T22:15:18.703Z,99218.78
2023-04-24T22:17:48.931Z,99211.97
2023-04-24T22:20:18.060Z,99216.28
2023-04-24T22:22:47.122Z,99211.97
2023-04-24T22:25:16.196Z,99207.53
2023-04-24T22:27:44.962Z,99213.13
2023-04-24T22:30:14.393Z,99202.56
2023-04-24T22:32:44.676Z,99202.56
2023-04-24T22:35:13.603Z,99211.78
2023-04-24T22:37:42.261Z,99201.50
2023-04-24T22:40:12.261Z,99209.44
2023-04-24T22:42:41.218Z,99210.41
2023-04-24T22:45:13.412Z,99207.38
2023-04-24T22:47:42.532Z,99211.16
2023-04-24T22:50:12.988Z,99211.16
2023-04-24T22:52:43.885Z,99213.50
2023-04-24T22:55:13.112Z,99213.19
2023-04-24T22:57:42.232Z,99211.41
2023-04-24T23:00:14.459Z,99217.66
2023-04-24T23:02:44.346Z,99215.00
2023-04-24T23:05:14.860Z,99209.44
2023-04-24T23:07:44.161Z,99212.91
2023-04-24T23:10:13.230Z,99209.06
2023-04-24T23:12:41.906Z,99210.03
2023-04-24T23:15:12.661Z,99211.31
2023-04-24T23:17:41.511Z,99215.75
2023-04-24T23:20:14.775Z,99217.72
2023-04-24T23:22:43.774Z,99213.59
2023-04-24T23:25:12.700Z,99213.59
2023-04-24T23:27:41.371Z,99205.50
2023-04-24T23:30:11.132Z,99213.59
2023-04-24T23:32:39.969Z,99210.28
2023-04-24T23:35:09.830Z,99210.09
2023-04-24T23:37:39.991Z,99206.91
2023-04-24T23:40:10.883Z,99212.72
2023-04-24T23:42:39.757Z,99199.00
2023-04-24T23:45:11.605Z,99196.34
2023-04-24T23:47:41.129Z,99200.59
2023-04-24T23:50:11.613Z,99191.22
2023-04-24T23:52:41.781Z,99193.19
2023-04-24T23:55:11.712Z,99195.41
2023-04-24T23:57:40.442Z,99194.56
